Time;durP1;ratioP1;P1;durP2;ratioP2;P2;SDS_P1;SDS_P2;PMS_P1;PMS_P2;Temp;Humidity;BMP_temperature;BMP_pressure;BME280_temperature;BME280_humidity;BME280_pressure;Samples;Min_cycle;Max_cycle;Signal;HPM_P1;HPM_P2
2023/10/14 00:01:25;;;;;;;4.35;1.17;;;13.40;99.90;;;;;;5057518;28;20098;-76
2023/10/14 00:03:51;;;;;;;3.60;0.70;;;13.30;99.90;;;;;;5046888;28;20384;-76
2023/10/14 00:06:19;;;;;;;2.97;1.00;;;13.20;99.90;;;;;;5025982;28;20049;-75
2023/10/14 00:08:48;;;;;;;1.08;0.55;;;13.30;99.90;;;;;;5035453;28;20052;-75
2023/10/14 00:11:18;;;;;;;6.18;0.77;;;13.30;99.90;;;;;;5043463;28;20381;-75
2023/10/14 00:13:52;;;;;;;8.43;0.98;;;13.20;99.90;;;;;;5028864;28;20503;-76
2023/10/14 00:18:49;;;;;;;3.63;0.70;;;13.10;99.90;;;;;;5059129;28;20059;-76
2023/10/14 00:21:15;;;;;;;6.68;1.10;;;13.10;99.90;;;;;;5041091;28;20063;-75
2023/10/14 00:23:44;;;;;;;8.30;1.05;;;13.10;99.90;;;;;;5032823;28;20049;-76
2023/10/14 00:26:14;;;;;;;4.47;0.70;;;13.00;99.90;;;;;;5029190;28;20521;-75
2023/10/14 00:28:42;;;;;;;3.00;0.70;;;12.90;99.90;;;;;;5042929;28;20041;-75
2023/10/14 00:31:12;;;;;;;7.55;1.38;;;12.90;99.90;;;;;;5040718;28;20037;-75
2023/10/14 00:33:38;;;;;;;6.80;0.70;;;12.80;99.90;;;;;;5027540;28;20052;-75
2023/10/14 00:36:10;;;;;;;4.55;0.63;;;12.70;99.90;;;;;;5022380;28;20036;-76
2023/10/14 00:38:37;;;;;;;5.22;0.80;;;12.60;99.90;;;;;;5049478;28;20106;-76
2023/10/14 00:41:03;;;;;;;6.22;1.38;;;12.50;99.90;;;;;;5061587;28;20024;-76
2023/10/14 00:43:29;;;;;;;7.70;0.90;;;12.50;99.90;;;;;;5023761;28;20050;-75
2023/10/14 00:45:54;;;;;;;6.15;1.45;;;12.40;99.90;;;;;;5027651;28;20066;-76
2023/10/14 00:48:27;;;;;;;10.30;1.40;;;12.30;99.90;;;;;;5027352;28;20475;-76
2023/10/14 00:50:59;;;;;;;5.97;1.42;;;12.30;99.90;;;;;;5019336;28;20064;-75
2023/10/14 00:53:28;;;;;;;8.80;1.10;;;12.20;99.90;;;;;;5040054;28;20499;-75
2023/10/14 00:55:58;;;;;;;3.72;0.80;;;12.10;99.90;;;;;;5048488;28;20035;-76
2023/10/14 00:58:24;;;;;;;3.67;0.80;;;12.10;99.90;;;;;;5042969;28;20080;-76
2023/10/14 01:01:00;;;;;;;6.90;1.10;;;12.10;99.90;;;;;;5027124;28;20041;-76
2023/10/14 01:03:31;;;;;;;6.53;0.98;;;12.10;99.90;;;;;;5039518;28;20041;-76
2023/10/14 01:06:34;;;;;;;5.78;0.98;;;12.00;99.90;;;;;;5046620;28;20261;-76
2023/10/14 01:08:53;;;;;;;6.70;1.50;;;12.00;99.90;;;;;;5033024;28;20464;-75
2023/10/14 01:11:23;;;;;;;7.10;1.33;;;11.80;99.90;;;;;;5028174;28;20051;-75
2023/10/14 01:13:51;;;;;;;8.32;1.38;;;11.70;99.90;;;;;;5045244;28;20544;-76
2023/10/14 01:16:17;;;;;;;9.35;1.30;;;11.70;99.90;;;;;;5035708;28;20400;-76
2023/10/14 01:18:46;;;;;;;7.57;1.15;;;11.60;99.90;;;;;;5017364;28;20150;-75
2023/10/14 01:21:13;;;;;;;8.07;1.95;;;11.60;99.90;;;;;;5044254;28;20977;-75
2023/10/14 01:23:44;;;;;;;5.35;1.08;;;11.60;99.90;;;;;;5027692;28;20041;-76
2023/10/14 01:26:10;;;;;;;6.15;1.27;;;11.50;99.90;;;;;;5044383;28;20131;-76
2023/10/14 01:28:43;;;;;;;6.53;1.10;;;11.40;99.90;;;;;;5046432;28;20143;-76
2023/10/14 01:31:41;;;;;;;10.60;1.52;;;11.30;99.90;;;;;;5029642;28;20033;-75
2023/10/14 01:34:07;;;;;;;10.10;1.63;;;11.20;99.90;;;;;;5036887;28;20049;-75
2023/10/14 01:36:40;;;;;;;6.20;1.65;;;11.20;99.90;;;;;;5042605;28;20075;-75
2023/10/14 01:39:11;;;;;;;8.80;1.38;;;11.10;99.90;;;;;;5048237;28;20045;-75
2023/10/14 01:41:36;;;;;;;10.15;1.58;;;11.00;99.90;;;;;;5042497;28;20405;-75
2023/10/14 01:44:05;;;;;;;11.40;2.63;;;10.90;99.90;;;;;;5050479;28;20048;-77
2023/10/14 01:46:34;;;;;;;10.05;1.80;;;10.80;99.90;;;;;;5028245;28;20090;-76
2023/10/14 01:49:11;;;;;;;13.20;1.30;;;10.80;99.90;;;;;;5026620;28;20523;-76
2023/10/14 01:51:37;;;;;;;6.57;1.10;;;10.70;99.90;;;;;;5026390;28;20091;-75
2023/10/14 01:54:06;;;;;;;8.38;1.50;;;10.70;99.90;;;;;;5052377;28;20087;-77
2023/10/14 01:56:32;;;;;;;8.65;1.20;;;10.60;99.90;;;;;;5028800;28;20064;-76
2023/10/14 01:58:57;;;;;;;7.90;1.25;;;10.60;99.90;;;;;;5016926;28;20119;-75
2023/10/14 02:01:23;;;;;;;7.93;1.20;;;10.60;99.90;;;;;;5029062;28;20086;-76
2023/10/14 02:03:52;;;;;;;3.85;0.90;;;10.70;99.90;;;;;;5036282;28;20044;-76
2023/10/14 02:06:30;;;;;;;6.70;1.42;;;10.70;99.90;;;;;;5026085;28;20056;-76
2023/10/14 02:08:58;;;;;;;7.30;1.25;;;10.80;99.90;;;;;;5030408;28;20043;-75
2023/10/14 02:11:24;;;;;;;7.28;1.20;;;10.70;99.90;;;;;;5042686;28;20051;-76
2023/10/14 02:13:52;;;;;;;6.72;1.20;;;10.60;99.90;;;;;;5054055;28;20127;-76
2023/10/14 02:16:25;;;;;;;8.52;1.48;;;10.50;99.90;;;;;;5044624;28;20072;-76
2023/10/14 02:18:51;;;;;;;10.75;1.60;;;10.40;99.90;;;;;;5034632;28;20033;-75
2023/10/14 02:21:18;;;;;;;9.63;1.38;;;10.40;99.90;;;;;;5050396;28;20131;-75
2023/10/14 02:23:44;;;;;;;11.23;2.65;;;10.30;99.90;;;;;;5029442;28;20041;-76
2023/10/14 02:26:33;;;;;;;11.80;1.45;;;10.30;99.90;;;;;;5032292;28;20040;-76
2023/10/14 02:28:59;;;;;;;3.55;0.93;;;10.20;99.90;;;;;;5050596;28;20748;-75
2023/10/14 02:31:29;;;;;;;7.75;2.20;;;10.10;99.90;;;;;;5050131;28;20067;-75
2023/10/14 02:34:06;;;;;;;9.48;1.75;;;10.10;99.90;;;;;;5035886;28;20114;-75
2023/10/14 02:36:48;;;;;;;9.13;1.10;;;10.00;99.90;;;;;;5046122;28;20048;-75
2023/10/14 02:39:17;;;;;;;8.88;1.30;;;10.00;99.90;;;;;;5036895;28;20052;-75
2023/10/14 02:41:45;;;;;;;12.63;1.77;;;9.90;99.90;;;;;;5061184;28;20033;-75
2023/10/14 02:46:42;;;;;;;5.40;1.13;;;9.90;99.90;;;;;;5059631;28;20049;-75
2023/10/14 02:49:14;;;;;;;8.57;0.90;;;9.80;99.90;;;;;;5044998;28;20116;-75
2023/10/14 02:51:43;;;;;;;7.22;1.77;;;9.80;99.90;;;;;;5055476;28;20174;-75
2023/10/14 02:54:26;;;;;;;6.40;1.38;;;9.70;99.90;;;;;;5049677;28;20055;-75
2023/10/14 02:57:12;;;;;;;10.27;1.23;;;9.80;99.90;;;;;;5056952;28;20033;-75
2023/10/14 03:09:50;;;;;;;8.23;1.45;;;9.60;99.90;;;;;;5042274;28;20071;-75
2023/10/14 03:12:18;;;;;;;12.10;1.20;;;9.50;99.90;;;;;;5032811;28;20051;-75
2023/10/14 03:14:54;;;;;;;9.65;1.20;;;9.50;99.90;;;;;;5043511;28;20033;-75
2023/10/14 03:23:19;;;;;;;7.40;1.35;;;9.40;99.90;;;;;;5025543;28;20120;-75
2023/10/14 03:25:54;;;;;;;9.30;1.52;;;9.30;99.90;;;;;;5025183;28;20124;-75
2023/10/14 03:28:27;;;;;;;10.57;1.25;;;9.20;99.90;;;;;;5060604;28;20045;-75
2023/10/14 03:30:56;;;;;;;7.05;1.83;;;9.20;99.90;;;;;;5053684;28;20039;-76
2023/10/14 03:33:23;;;;;;;5.90;1.20;;;9.20;99.90;;;;;;5039115;28;20040;-75
2023/10/14 03:36:42;;;;;;;9.60;1.33;;;9.10;99.90;;;;;;5031057;28;20724;-75
2023/10/14 03:38:39;;;;;;;9.13;1.17;;;9.10;99.90;;;;;;5032293;28;20045;-75
2023/10/14 03:41:10;;;;;;;5.53;1.58;;;9.00;99.90;;;;;;5044259;28;20041;-76
2023/10/14 03:46:24;;;;;;;16.42;2.10;;;9.00;99.90;;;;;;5050353;28;20049;-75
2023/10/14 03:48:55;;;;;;;7.18;2.25;;;9.00;99.90;;;;;;5042233;28;20177;-75
2023/10/14 03:51:25;;;;;;;10.68;1.55;;;9.00;99.90;;;;;;5045068;28;20037;-75
2023/10/14 03:53:55;;;;;;;6.88;1.00;;;8.90;99.90;;;;;;5062569;28;20132;-76
2023/10/14 03:56:25;;;;;;;8.02;1.15;;;8.90;99.90;;;;;;5042391;28;20198;-76
2023/10/14 03:59:01;;;;;;;6.43;1.45;;;8.80;99.90;;;;;;5030529;28;20434;-76
2023/10/14 04:01:43;;;;;;;11.57;2.00;;;8.80;99.90;;;;;;5044200;28;20041;-75
2023/10/14 04:04:18;;;;;;;5.05;1.42;;;8.70;99.90;;;;;;5036169;28;20036;-76
2023/10/14 04:06:52;;;;;;;10.53;1.87;;;8.70;99.90;;;;;;5049080;28;20705;-76
2023/10/14 04:09:24;;;;;;;10.75;1.20;;;8.70;99.90;;;;;;5062060;28;20813;-76
2023/10/14 04:11:54;;;;;;;11.85;1.42;;;8.70;99.90;;;;;;5027542;28;20056;-76
2023/10/14 04:14:22;;;;;;;10.63;1.42;;;8.70;99.90;;;;;;5047345;28;20049;-76
2023/10/14 04:16:50;;;;;;;12.77;1.75;;;8.70;99.90;;;;;;5036063;28;20040;-75
2023/10/14 04:19:44;;;;;;;7.88;2.13;;;8.70;99.90;;;;;;5039289;28;20430;-76
2023/10/14 04:22:27;;;;;;;15.02;2.10;;;8.60;99.90;;;;;;5042597;28;20051;-76
2023/10/14 04:25:09;;;;;;;9.70;1.20;;;8.60;99.90;;;;;;5052049;28;20037;-75
2023/10/14 04:30:21;;;;;;;5.35;1.35;;;8.60;99.90;;;;;;5044498;28;20114;-76
2023/10/14 04:35:23;;;;;;;11.23;1.08;;;8.50;99.90;;;;;;5043181;28;20106;-75
2023/10/14 04:37:53;;;;;;;9.40;1.60;;;8.50;99.90;;;;;;5042116;28;20044;-77
2023/10/14 04:45:51;;;;;;;13.75;2.08;;;8.50;99.90;;;;;;5042071;28;20067;-76
2023/10/14 04:51:21;;;;;;;7.25;1.50;;;8.50;99.90;;;;;;5016499;28;20063;-76
2023/10/14 04:53:52;;;;;;;7.00;1.27;;;8.40;99.90;;;;;;5040964;28;20057;-77
2023/10/14 04:56:29;;;;;;;11.57;2.40;;;8.50;99.90;;;;;;5024884;28;20044;-76
2023/10/14 04:58:55;;;;;;;6.53;1.20;;;8.50;99.90;;;;;;5046273;28;20040;-76
2023/10/14 05:01:24;;;;;;;9.63;1.48;;;8.50;99.90;;;;;;5029630;28;20078;-77
2023/10/14 05:03:55;;;;;;;5.53;1.70;;;8.50;99.90;;;;;;5043699;28;20487;-76
2023/10/14 05:06:22;;;;;;;6.20;1.13;;;8.40;99.90;;;;;;5061437;28;20040;-76
2023/10/14 05:08:55;;;;;;;9.38;1.08;;;8.50;99.90;;;;;;5040732;28;20052;-76
2023/10/14 05:11:25;;;;;;;8.50;1.42;;;8.40;99.90;;;;;;5044576;28;20037;-76
2023/10/14 05:16:53;;;;;;;9.23;1.33;;;8.40;99.90;;;;;;5048294;28;20052;-76
2023/10/14 05:19:30;;;;;;;7.63;0.80;;;8.40;99.90;;;;;;5028332;28;20046;-76
2023/10/14 05:22:10;;;;;;;7.00;0.93;;;8.40;99.90;;;;;;5017618;28;20087;-76
2023/10/14 05:24:39;;;;;;;9.20;1.27;;;8.40;99.90;;;;;;5028170;28;20064;-76
2023/10/14 05:27:05;;;;;;;8.68;1.38;;;8.40;99.90;;;;;;5021641;28;20045;-76
2023/10/14 05:29:30;;;;;;;11.45;1.63;;;8.30;99.90;;;;;;5017221;28;20152;-76
2023/10/14 05:32:16;;;;;;;16.42;1.25;;;8.40;99.90;;;;;;5043098;28;20738;-76
2023/10/14 05:34:45;;;;;;;9.05;1.48;;;8.30;99.90;;;;;;5021487;28;20033;-76
2023/10/14 05:37:11;;;;;;;10.95;1.20;;;8.30;99.90;;;;;;5045067;28;20043;-76
2023/10/14 05:39:38;;;;;;;8.05;1.08;;;8.30;99.90;;;;;;5050606;28;20080;-76
2023/10/14 05:42:17;;;;;;;13.65;1.60;;;8.30;99.90;;;;;;5046239;28;20033;-79
2023/10/14 05:44:54;;;;;;;7.30;1.10;;;8.30;99.90;;;;;;5028520;28;20048;-76
2023/10/14 05:47:20;;;;;;;9.98;1.52;;;8.30;99.90;;;;;;5032945;28;20041;-77
2023/10/14 05:49:46;;;;;;;11.32;1.98;;;8.30;99.90;;;;;;5042588;28;20402;-77
2023/10/14 05:52:13;;;;;;;7.70;1.00;;;8.30;99.90;;;;;;5024973;28;20289;-77
2023/10/14 05:54:40;;;;;;;7.75;1.42;;;8.30;99.90;;;;;;5061221;28;20055;-77
2023/10/14 05:57:08;;;;;;;8.88;1.48;;;8.30;99.90;;;;;;5055301;28;20379;-76
2023/10/14 05:59:36;;;;;;;7.25;1.10;;;8.30;99.90;;;;;;5040272;28;20482;-77
2023/10/14 06:02:07;;;;;;;16.15;1.88;;;8.30;99.90;;;;;;5031271;28;20041;-76
2023/10/14 06:04:39;;;;;;;7.50;1.30;;;8.20;99.90;;;;;;5057707;28;20048;-77
2023/10/14 06:07:06;;;;;;;8.82;1.40;;;8.30;99.90;;;;;;5025790;28;20882;-77
2023/10/14 06:09:32;;;;;;;20.17;1.55;;;8.30;99.90;;;;;;5026346;28;20086;-76
2023/10/14 06:11:58;;;;;;;7.95;1.10;;;8.40;99.90;;;;;;5022581;28;20086;-77
2023/10/14 06:14:25;;;;;;;11.93;1.30;;;8.40;99.90;;;;;;5022210;28;20629;-75
2023/10/14 06:16:51;;;;;;;9.27;1.58;;;8.40;99.90;;;;;;5041103;28;20037;-76
2023/10/14 06:19:18;;;;;;;13.07;1.75;;;8.40;99.90;;;;;;5043626;28;20411;-75
2023/10/14 06:21:44;;;;;;;18.50;1.75;;;8.40;99.90;;;;;;5041773;28;20048;-76
2023/10/14 06:24:12;;;;;;;7.53;1.27;;;8.40;99.90;;;;;;5034059;28;20045;-75
2023/10/14 06:26:38;;;;;;;12.02;2.00;;;8.50;99.90;;;;;;5047735;28;20115;-76
2023/10/14 06:29:05;;;;;;;11.40;1.38;;;8.50;99.90;;;;;;5049277;28;20121;-75
2023/10/14 06:31:31;;;;;;;14.70;1.30;;;8.50;99.90;;;;;;5022558;28;20552;-75
2023/10/14 06:33:57;;;;;;;13.23;1.33;;;8.60;99.90;;;;;;5026458;28;20044;-75
2023/10/14 06:36:25;;;;;;;12.50;1.45;;;8.60;99.90;;;;;;5022356;28;20071;-76
2023/10/14 06:38:51;;;;;;;13.52;1.40;;;8.60;99.90;;;;;;5025565;28;20554;-76
2023/10/14 06:41:17;;;;;;;13.77;1.80;;;8.60;99.90;;;;;;5041666;28;20048;-76
2023/10/14 06:43:47;;;;;;;16.50;1.60;;;8.70;99.90;;;;;;5053559;28;20095;-76
2023/10/14 06:46:16;;;;;;;9.77;1.25;;;8.80;99.90;;;;;;5043665;28;20507;-75
2023/10/14 06:48:41;;;;;;;11.63;1.80;;;8.70;99.90;;;;;;5038341;28;20108;-75
2023/10/14 06:51:09;;;;;;;6.20;1.45;;;8.80;99.90;;;;;;5029166;28;20036;-75
2023/10/14 06:53:35;;;;;;;8.25;1.30;;;8.90;99.90;;;;;;5038111;28;20068;-75
2023/10/14 06:56:01;;;;;;;8.20;1.55;;;8.90;99.90;;;;;;5024172;28;20033;-75
2023/10/14 06:58:28;;;;;;;6.80;1.25;;;9.00;99.90;;;;;;5021192;28;20041;-75
2023/10/14 07:00:58;;;;;;;8.00;1.40;;;9.10;99.90;;;;;;5033067;28;20037;-75
2023/10/14 07:03:24;;;;;;;11.20;1.42;;;9.10;99.90;;;;;;5046813;28;20049;-75
2023/10/14 07:05:56;;;;;;;9.20;1.42;;;9.10;99.90;;;;;;5024023;28;20052;-75
2023/10/14 07:08:24;;;;;;;10.40;1.25;;;9.10;99.90;;;;;;5019497;28;20132;-75
2023/10/14 07:10:51;;;;;;;8.88;1.95;;;9.20;99.90;;;;;;5046035;28;20113;-75
2023/10/14 07:13:19;;;;;;;10.00;1.20;;;9.20;99.90;;;;;;5050805;28;20071;-76
2023/10/14 07:15:44;;;;;;;6.68;1.08;;;9.20;99.90;;;;;;5037532;28;20064;-75
2023/10/14 07:18:13;;;;;;;9.30;1.10;;;9.20;99.90;;;;;;5033298;28;20438;-75
2023/10/14 07:20:42;;;;;;;10.00;2.00;;;9.30;99.90;;;;;;5054438;28;20053;-75
2023/10/14 07:23:08;;;;;;;8.93;1.15;;;9.30;99.90;;;;;;5030979;28;20128;-75
2023/10/14 07:25:39;;;;;;;8.68;1.20;;;9.30;99.90;;;;;;5046144;28;20045;-75
2023/10/14 07:28:14;;;;;;;7.38;1.05;;;9.30;99.90;;;;;;5040545;28;20234;-75
2023/10/14 07:30:48;;;;;;;11.50;2.03;;;9.40;99.90;;;;;;5041209;28;21203;-75
2023/10/14 07:33:17;;;;;;;9.20;1.52;;;9.40;99.90;;;;;;5028380;28;20037;-75
2023/10/14 07:35:44;;;;;;;9.13;1.38;;;9.50;99.90;;;;;;5043335;28;20039;-75
2023/10/14 07:38:10;;;;;;;9.82;1.05;;;9.50;99.90;;;;;;5029525;28;20057;-75
2023/10/14 07:40:37;;;;;;;9.10;1.40;;;9.60;99.90;;;;;;5050427;28;20048;-75
2023/10/14 07:43:05;;;;;;;7.82;1.50;;;9.60;99.90;;;;;;5034858;28;20036;-75
2023/10/14 07:45:35;;;;;;;10.38;1.30;;;9.70;99.90;;;;;;5056166;28;20041;-75
2023/10/14 07:48:08;;;;;;;12.50;1.60;;;9.70;99.90;;;;;;5030265;28;20037;-75
2023/10/14 07:50:38;;;;;;;13.48;1.55;;;9.80;99.90;;;;;;5046140;28;20048;-75
2023/10/14 07:53:15;;;;;;;8.23;1.25;;;9.90;99.90;;;;;;5053019;28;20059;-75
2023/10/14 07:55:47;;;;;;;6.82;0.90;;;10.00;99.90;;;;;;5041861;28;20072;-75
2023/10/14 07:58:14;;;;;;;9.95;1.23;;;10.10;99.90;;;;;;5036611;28;20049;-75
2023/10/14 08:00:48;;;;;;;5.15;1.35;;;10.10;99.90;;;;;;5030653;28;20124;-75
2023/10/14 08:03:20;;;;;;;9.43;1.40;;;10.20;99.90;;;;;;5030041;28;20036;-75
2023/10/14 08:05:51;;;;;;;6.90;1.40;;;10.20;99.90;;;;;;5035623;28;20045;-75
2023/10/14 08:08:19;;;;;;;12.68;1.10;;;10.30;99.90;;;;;;5026600;28;20076;-75
2023/10/14 08:10:48;;;;;;;9.02;1.35;;;10.30;99.90;;;;;;5034770;28;20033;-75
2023/10/14 08:13:13;;;;;;;9.15;1.55;;;10.40;99.90;;;;;;5027689;28;20046;-75
2023/10/14 08:15:42;;;;;;;7.30;1.50;;;10.50;99.90;;;;;;5022392;28;20392;-75
2023/10/14 08:18:08;;;;;;;15.18;1.67;;;10.50;99.90;;;;;;5042051;28;20071;-75
2023/10/14 08:20:34;;;;;;;6.15;1.35;;;10.60;99.90;;;;;;5027657;28;20075;-75
2023/10/14 08:23:01;;;;;;;5.07;1.10;;;10.70;99.90;;;;;;5057811;28;20049;-75
2023/10/14 08:25:28;;;;;;;5.57;0.95;;;10.70;99.90;;;;;;5029756;28;20424;-75
2023/10/14 08:27:57;;;;;;;8.48;1.60;;;10.70;99.90;;;;;;5044212;28;20056;-75
2023/10/14 08:30:32;;;;;;;12.85;1.75;;;10.80;99.90;;;;;;5045542;28;20036;-75
2023/10/14 08:32:58;;;;;;;8.05;1.75;;;10.90;99.90;;;;;;5042732;28;20061;-76
2023/10/14 08:35:27;;;;;;;7.55;1.60;;;11.00;99.90;;;;;;5030221;28;20103;-75
2023/10/14 08:37:54;;;;;;;7.65;1.00;;;11.00;99.90;;;;;;5022687;28;20041;-74
2023/10/14 08:40:26;;;;;;;7.97;1.30;;;11.10;99.90;;;;;;5025884;28;20560;-75
2023/10/14 08:43:08;;;;;;;7.68;0.90;;;11.20;99.90;;;;;;5048660;28;20044;-75
2023/10/14 08:45:39;;;;;;;8.10;1.38;;;11.20;99.90;;;;;;5040656;28;20032;-75
2023/10/14 08:48:11;;;;;;;10.57;1.92;;;11.30;99.90;;;;;;5021260;28;20687;-74
2023/10/14 08:50:39;;;;;;;6.22;1.45;;;11.40;99.90;;;;;;5034075;28;20052;-75
2023/10/14 08:53:06;;;;;;;12.15;2.00;;;11.40;99.90;;;;;;5027009;28;20056;-74
2023/10/14 08:55:34;;;;;;;9.85;1.08;;;11.60;99.90;;;;;;5025792;28;20037;-75
2023/10/14 08:58:02;;;;;;;8.13;1.52;;;11.60;99.90;;;;;;5040343;28;20045;-74
2023/10/14 09:00:29;;;;;;;5.68;1.05;;;11.70;99.90;;;;;;5060209;28;20083;-74
2023/10/14 09:02:57;;;;;;;6.80;1.95;;;12.00;99.90;;;;;;5035195;28;20044;-74
2023/10/14 09:05:25;;;;;;;6.05;1.00;;;12.20;99.90;;;;;;5038756;28;20080;-75
2023/10/14 09:07:55;;;;;;;4.90;1.20;;;12.30;99.90;;;;;;5057672;28;20098;-74
2023/10/14 09:10:24;;;;;;;10.65;1.10;;;12.20;99.90;;;;;;5040736;28;20080;-75
2023/10/14 09:13:06;;;;;;;4.88;1.08;;;12.20;99.90;;;;;;5034706;28;20041;-75
2023/10/14 09:15:41;;;;;;;9.60;1.65;;;12.10;99.90;;;;;;5039977;28;20041;-75
2023/10/14 09:18:21;;;;;;;5.30;1.35;;;12.20;99.90;;;;;;5026030;28;20074;-75
2023/10/14 09:20:54;;;;;;;10.98;1.10;;;12.40;99.90;;;;;;5023931;28;20057;-75
2023/10/14 09:23:33;;;;;;;8.98;1.15;;;12.40;99.90;;;;;;5054738;28;20541;-75
2023/10/14 09:26:04;;;;;;;5.78;1.27;;;12.30;99.90;;;;;;5022235;28;20572;-74
2023/10/14 09:28:33;;;;;;;6.35;0.80;;;12.40;99.90;;;;;;5027237;28;20411;-75
2023/10/14 09:31:02;;;;;;;9.25;1.17;;;12.30;99.90;;;;;;5028934;28;20072;-74
2023/10/14 09:33:34;;;;;;;5.95;0.80;;;12.40;99.90;;;;;;5028320;28;20621;-75
2023/10/14 09:36:03;;;;;;;6.45;0.90;;;12.40;99.90;;;;;;5029310;28;20377;-75
2023/10/14 09:38:32;;;;;;;2.88;1.23;;;12.30;99.90;;;;;;5036627;28;20614;-76
2023/10/14 09:41:03;;;;;;;4.97;1.38;;;12.30;99.90;;;;;;5026503;28;20033;-75
2023/10/14 09:43:33;;;;;;;5.78;1.13;;;12.50;99.90;;;;;;5015248;28;20551;-75
2023/10/14 09:46:00;;;;;;;4.40;0.75;;;12.40;99.90;;;;;;5055053;28;20041;-75
2023/10/14 09:48:29;;;;;;;4.28;1.10;;;12.40;99.90;;;;;;5041927;28;20058;-74
2023/10/14 09:50:56;;;;;;;3.38;0.45;;;12.50;99.90;;;;;;5039390;28;20063;-75
2023/10/14 09:53:26;;;;;;;6.07;0.85;;;12.80;99.90;;;;;;5028357;28;20634;-75
2023/10/14 09:55:56;;;;;;;12.13;1.90;;;13.10;99.90;;;;;;5029353;28;20083;-75
2023/10/14 09:58:26;;;;;;;6.53;0.82;;;13.40;99.90;;;;;;5033672;28;20651;-75
2023/10/14 10:00:53;;;;;;;6.93;1.10;;;13.30;99.90;;;;;;5043284;28;20088;-75
2023/10/14 10:03:21;;;;;;;3.17;0.70;;;12.80;99.90;;;;;;5041519;28;20047;-75
2023/10/14 10:06:00;;;;;;;10.48;1.20;;;12.20;99.90;;;;;;5039016;28;20037;-75
2023/10/14 10:08:50;;;;;;;6.80;0.98;;;11.40;99.90;;;;;;5026609;28;20049;-75
2023/10/14 10:11:29;;;;;;;4.53;0.70;;;10.60;99.90;;;;;;5042207;28;20572;-75
2023/10/14 10:13:59;;;;;;;13.10;1.27;;;10.30;99.90;;;;;;5025888;28;20488;-74
2023/10/14 10:16:30;;;;;;;8.90;2.28;;;10.20;99.90;;;;;;5033948;28;20041;-74
2023/10/14 10:18:57;;;;;;;11.18;1.77;;;10.10;99.90;;;;;;5023357;28;20115;-74
2023/10/14 10:21:30;;;;;;;9.05;1.42;;;10.00;99.90;;;;;;5036278;28;20045;-75
2023/10/14 10:24:15;;;;;;;11.65;1.80;;;10.00;99.90;;;;;;5015393;28;20041;-74
2023/10/14 10:27:02;;;;;;;14.63;1.60;;;10.10;99.90;;;;;;5036766;28;20041;-74
2023/10/14 10:29:32;;;;;;;6.53;0.82;;;10.10;99.90;;;;;;5037294;28;20101;-74
2023/10/14 10:32:09;;;;;;;6.45;1.00;;;10.00;99.90;;;;;;5016621;28;20099;-74
2023/10/14 10:35:07;;;;;;;10.50;1.50;;;10.00;99.90;;;;;;5043022;28;20037;-74
2023/10/14 10:37:49;;;;;;;8.75;1.15;;;10.00;99.90;;;;;;5023497;28;20060;-75
2023/10/14 10:40:33;;;;;;;4.90;1.00;;;9.90;99.90;;;;;;5048063;28;20098;-74
2023/10/14 10:43:07;;;;;;;4.18;0.60;;;9.90;99.90;;;;;;5041511;28;20446;-74
2023/10/14 10:45:34;;;;;;;5.10;0.68;;;10.10;99.90;;;;;;5028449;28;20107;-74
2023/10/14 10:48:03;;;;;;;4.13;2.13;;;10.20;99.90;;;;;;5046213;28;20152;-73
2023/10/14 10:50:38;;;;;;;4.53;0.93;;;10.30;99.90;;;;;;5031889;28;20180;-73
2023/10/14 10:53:07;;;;;;;2.25;0.50;;;10.30;99.90;;;;;;5030575;28;20056;-73
2023/10/14 10:55:36;;;;;;;5.93;0.98;;;10.20;99.90;;;;;;5028637;28;20048;-73
2023/10/14 10:58:03;;;;;;;6.03;0.90;;;10.10;99.90;;;;;;5043365;28;20037;-73
2023/10/14 11:00:30;;;;;;;2.72;0.70;;;10.00;99.90;;;;;;5040638;28;20076;-73
2023/10/14 11:02:57;;;;;;;4.93;0.80;;;10.20;99.90;;;;;;5038866;28;20045;-73
2023/10/14 11:05:25;;;;;;;6.90;0.80;;;10.40;99.90;;;;;;5024040;28;20044;-73
2023/10/14 11:07:52;;;;;;;6.25;1.08;;;10.60;99.90;;;;;;5048703;28;20032;-72
2023/10/14 11:10:23;;;;;;;4.28;0.82;;;10.80;99.90;;;;;;5028214;28;20048;-72
2023/10/14 11:12:49;;;;;;;3.67;0.68;;;11.00;99.90;;;;;;5043011;28;20243;-72
2023/10/14 11:15:19;;;;;;;4.53;0.60;;;11.10;99.90;;;;;;5041337;28;20638;-71
2023/10/14 11:17:46;;;;;;;6.63;0.77;;;11.40;99.90;;;;;;5053743;28;20487;-71
2023/10/14 11:20:15;;;;;;;9.40;0.98;;;11.60;99.90;;;;;;5039005;28;20040;-71
2023/10/14 11:22:43;;;;;;;5.88;1.00;;;11.90;99.90;;;;;;5046597;28;20039;-70
2023/10/14 11:25:13;;;;;;;3.80;1.00;;;12.30;99.90;;;;;;5040574;28;20220;-71
2023/10/14 11:27:41;;;;;;;6.30;0.88;;;12.50;99.90;;;;;;5022942;28;20535;-71
2023/10/14 11:30:11;;;;;;;5.05;1.27;;;12.70;99.90;;;;;;5044349;28;20075;-70
2023/10/14 11:32:43;;;;;;;4.38;1.08;;;12.50;99.90;;;;;;5024100;28;20045;-71
2023/10/14 11:35:10;;;;;;;3.67;1.20;;;11.90;99.90;;;;;;5041081;28;20036;-71
2023/10/14 11:37:36;;;;;;;4.75;0.60;;;11.00;99.90;;;;;;5040376;28;20116;-70
2023/10/14 11:40:14;;;;;;;5.90;0.45;;;10.50;99.90;;;;;;5027866;28;20128;-71
2023/10/14 11:42:41;;;;;;;4.95;0.52;;;10.30;99.90;;;;;;5043486;28;20125;-70
2023/10/14 11:45:07;;;;;;;5.20;0.65;;;10.30;99.90;;;;;;5028386;28;20049;-70
2023/10/14 11:47:37;;;;;;;10.52;1.27;;;10.40;99.90;;;;;;5043025;28;20045;-70
2023/10/14 11:50:12;;;;;;;4.32;1.50;;;10.60;99.90;;;;;;5039894;28;20041;-70
2023/10/14 11:52:40;;;;;;;12.00;2.35;;;10.90;99.90;;;;;;5030413;28;20084;-71
2023/10/14 11:55:06;;;;;;;5.80;0.80;;;11.10;99.90;;;;;;5026355;28;20076;-70
2023/10/14 11:57:32;;;;;;;2.83;0.77;;;11.10;99.90;;;;;;5037418;28;20041;-70
2023/10/14 12:00:00;;;;;;;11.15;0.80;;;10.80;99.90;;;;;;5040054;28;20040;-71
2023/10/14 12:02:27;;;;;;;5.80;0.63;;;10.50;99.90;;;;;;5042512;28;20047;-71
2023/10/14 12:04:53;;;;;;;4.18;0.60;;;10.10;99.90;;;;;;5046071;28;20573;-71
2023/10/14 12:07:21;;;;;;;3.97;0.80;;;9.80;99.90;;;;;;5036562;28;20047;-71
2023/10/14 12:09:47;;;;;;;4.15;0.60;;;9.60;99.90;;;;;;5030324;28;20037;-71
2023/10/14 12:12:13;;;;;;;3.58;0.60;;;9.60;99.90;;;;;;5043734;28;20182;-71
2023/10/14 12:14:38;;;;;;;4.55;0.70;;;9.50;99.90;;;;;;5023375;28;20140;-71
2023/10/14 12:17:04;;;;;;;6.85;0.80;;;9.60;99.90;;;;;;5038816;28;20121;-72
2023/10/14 12:19:33;;;;;;;5.72;0.82;;;9.70;99.90;;;;;;5029659;28;20064;-71
2023/10/14 12:21:58;;;;;;;7.25;0.98;;;9.80;99.90;;;;;;5027384;28;20505;-71
2023/10/14 12:24:25;;;;;;;10.57;1.00;;;9.90;99.90;;;;;;5041004;28;20051;-71
2023/10/14 12:26:52;;;;;;;6.55;1.15;;;10.00;99.90;;;;;;5042958;28;20045;-71
2023/10/14 12:29:20;;;;;;;10.55;1.75;;;10.00;99.90;;;;;;5041908;28;20076;-71
2023/10/14 12:31:47;;;;;;;6.85;1.48;;;10.00;99.90;;;;;;5019469;28;20052;-71
2023/10/14 12:34:14;;;;;;;3.78;0.85;;;9.90;99.90;;;;;;5041176;28;20037;-71
2023/10/14 12:36:43;;;;;;;10.30;2.20;;;10.00;99.90;;;;;;5026217;28;20087;-72
2023/10/14 12:39:33;;;;;;;7.90;1.10;;;10.20;99.90;;;;;;5038294;28;20049;-71
2023/10/14 12:42:03;;;;;;;4.13;0.75;;;10.40;99.90;;;;;;5057253;28;20045;-72
2023/10/14 12:44:28;;;;;;;9.20;1.40;;;10.60;99.90;;;;;;5018976;28;20506;-71
2023/10/14 12:46:54;;;;;;;10.00;2.28;;;10.90;99.90;;;;;;5028243;28;20041;-72
2023/10/14 12:49:20;;;;;;;7.57;1.27;;;11.10;99.90;;;;;;5031538;28;20574;-71
2023/10/14 12:51:46;;;;;;;6.15;0.98;;;11.40;99.90;;;;;;5027483;28;20033;-72
2023/10/14 12:54:19;;;;;;;9.38;1.50;;;11.60;99.90;;;;;;5018201;28;20049;-71
2023/10/14 12:56:50;;;;;;;9.80;1.35;;;11.70;99.90;;;;;;5025939;28;20045;-71
2023/10/14 12:59:16;;;;;;;7.85;1.33;;;11.80;99.90;;;;;;5024862;28;20163;-72
2023/10/14 13:01:58;;;;;;;6.22;1.52;;;11.80;99.90;;;;;;5038633;28;20574;-72
2023/10/14 13:04:27;;;;;;;7.93;1.50;;;12.00;99.90;;;;;;5039556;28;20537;-72
2023/10/14 13:06:53;;;;;;;8.15;1.60;;;12.10;99.90;;;;;;5036270;28;20037;-71
2023/10/14 13:09:19;;;;;;;7.78;1.10;;;12.20;99.90;;;;;;5046717;28;20050;-71
2023/10/14 13:11:45;;;;;;;9.10;1.23;;;12.20;99.90;;;;;;5025390;28;20043;-72
2023/10/14 13:14:25;;;;;;;7.70;1.38;;;12.30;99.90;;;;;;5022273;28;20061;-72
2023/10/14 13:16:52;;;;;;;7.05;1.58;;;12.30;99.90;;;;;;5030015;28;20064;-72
2023/10/14 13:19:18;;;;;;;7.93;1.90;;;12.30;99.90;;;;;;5033086;28;20057;-71
2023/10/14 13:21:44;;;;;;;11.90;1.38;;;12.40;99.90;;;;;;5027104;28;20037;-72
2023/10/14 13:24:11;;;;;;;10.30;1.30;;;12.40;99.90;;;;;;5028147;28;20417;-72
2023/10/14 13:26:38;;;;;;;6.78;1.10;;;12.40;99.90;;;;;;5039827;28;20049;-72
2023/10/14 13:29:05;;;;;;;7.93;1.95;;;12.20;99.90;;;;;;5045404;28;20037;-72
2023/10/14 13:31:30;;;;;;;7.90;2.03;;;12.00;99.90;;;;;;5023058;28;20076;-71
2023/10/14 13:33:56;;;;;;;8.30;1.10;;;12.10;99.90;;;;;;5012758;28;20061;-72
2023/10/14 13:36:22;;;;;;;7.32;1.45;;;12.10;99.90;;;;;;5039726;28;20079;-71
2023/10/14 13:38:48;;;;;;;3.25;1.10;;;12.00;99.90;;;;;;5024588;28;20098;-72
2023/10/14 13:41:15;;;;;;;7.25;1.25;;;11.90;99.90;;;;;;5038567;28;20120;-71
2023/10/14 13:43:45;;;;;;;7.60;1.00;;;11.90;99.90;;;;;;5024150;28;20076;-72